createdAt,value
2023-04-20T00:01:36.186Z,14.87
2023-04-20T00:04:04.517Z,15.57
2023-04-20T00:06:34.640Z,15.10
2023-04-20T00:09:04.619Z,14.77
2023-04-20T00:11:34.054Z,15.20
2023-04-20T00:14:02.012Z,15.43
2023-04-20T00:16:30.059Z,15.67
2023-04-20T00:18:59.139Z,15.33
2023-04-20T00:21:27.172Z,16.17
2023-04-20T00:23:55.276Z,15.73
2023-04-20T00:26:23.277Z,15.53
2023-04-20T00:28:53.530Z,15.33
2023-04-20T00:31:22.455Z,15.77
2023-04-20T00:33:50.632Z,17.10
2023-04-20T00:36:18.686Z,15.87
2023-04-20T00:38:46.683Z,16.73
2023-04-20T00:41:14.708Z,17.03
2023-04-20T00:43:53.600Z,17.13
2023-04-20T00:46:22.745Z,17.30
2023-04-20T00:48:52.105Z,18.23
2023-04-20T00:51:22.211Z,17.20
2023-04-20T00:53:50.199Z,16.57
2023-04-20T00:56:19.660Z,16.53
2023-04-20T00:58:48.045Z,17.17
2023-04-20T01:01:18.375Z,16.70
2023-04-20T01:03:46.953Z,17.10
2023-04-20T01:06:15.792Z,16.70
2023-04-20T01:08:49.547Z,16.53
2023-04-20T01:11:18.056Z,16.00
2023-04-20T01:13:46.305Z,16.03
2023-04-20T01:16:14.766Z,16.40
2023-04-20T01:18:46.500Z,14.60
2023-04-20T01:21:16.763Z,16.87
2023-04-20T01:23:46.632Z,17.07
2023-04-20T01:26:16.879Z,16.07
2023-04-20T01:28:45.391Z,16.73
2023-04-20T01:31:14.132Z,17.60
2023-04-20T01:33:42.508Z,17.73
2023-04-20T01:36:11.028Z,17.27
2023-04-20T01:38:39.118Z,18.83
2023-04-20T01:41:10.629Z,18.43
2023-04-20T01:43:39.631Z,19.40
2023-04-20T01:46:08.975Z,19.10
2023-04-20T01:48:37.178Z,20.80
2023-04-20T01:51:05.370Z,20.13
2023-04-20T01:53:33.380Z,20.87
2023-04-20T01:56:01.334Z,21.37
2023-04-20T01:58:31.825Z,22.20
2023-04-20T02:01:01.828Z,22.40
2023-04-20T02:03:29.999Z,23.17
2023-04-20T02:05:58.235Z,23.00
2023-04-20T02:08:26.272Z,23.90
2023-04-20T02:10:54.711Z,24.23
2023-04-20T02:13:22.666Z,22.90
2023-04-20T02:15:52.038Z,24.83
2023-04-20T02:18:20.026Z,23.57
2023-04-20T02:20:48.190Z,23.67
2023-04-20T02:23:19.937Z,24.87
2023-04-20T02:25:47.942Z,25.07
2023-04-20T02:28:15.891Z,24.53
2023-04-20T02:30:43.902Z,25.67
2023-04-20T02:33:13.279Z,26.13
2023-04-20T02:35:41.665Z,26.20
2023-04-20T02:38:09.644Z,26.03
2023-04-20T02:40:37.687Z,25.80
2023-04-20T02:43:05.901Z,26.73
2023-04-20T02:45:34.016Z,26.93
2023-04-20T02:48:03.112Z,26.70
2023-04-20T02:50:32.449Z,26.50
2023-04-20T02:53:00.372Z,26.33
2023-04-20T02:55:28.588Z,25.63
2023-04-20T02:57:56.535Z,23.90
2023-04-20T03:00:25.033Z,22.43
2023-04-20T03:02:53.169Z,21.30
2023-04-20T03:05:21.783Z,20.40
2023-04-20T03:07:51.115Z,19.50
2023-04-20T03:10:19.100Z,18.63
2023-04-20T03:12:47.429Z,19.67
2023-04-20T03:15:15.668Z,18.33
2023-04-20T03:17:43.696Z,17.90
2023-04-20T03:20:12.336Z,15.87
2023-04-20T03:22:40.345Z,14.80
2023-04-20T03:25:10.775Z,15.50
2023-04-20T03:27:38.799Z,13.53
2023-04-20T03:30:13.099Z,11.67
2023-04-20T03:32:42.276Z,10.37
2023-04-20T03:35:12.117Z,9.67
2023-04-20T03:37:40.102Z,8.93
2023-04-20T03:40:11.087Z,9.23
2023-04-20T03:42:39.105Z,9.10
2023-04-20T03:45:08.156Z,9.10
2023-04-20T03:47:37.898Z,8.17
2023-04-20T03:50:06.907Z,9.00
2023-04-20T03:52:34.879Z,9.50
2023-04-20T03:55:02.936Z,9.30
2023-04-20T03:57:32.277Z,9.63
2023-04-20T04:00:00.927Z,9.73
2023-04-20T04:02:29.233Z,10.40
2023-04-20T04:04:57.438Z,10.30
2023-04-20T04:07:25.481Z,10.40
2023-04-20T04:09:53.552Z,10.27
2023-04-20T04:12:21.911Z,10.77
2023-04-20T04:14:51.261Z,10.70
2023-04-20T04:17:19.240Z,9.83
2023-04-20T04:19:47.264Z,9.97
2023-04-20T04:22:15.283Z,10.67
2023-04-20T04:24:47.474Z,11.50
2023-04-20T04:27:15.648Z,11.10
2023-04-20T04:29:44.786Z,11.60
2023-04-20T04:32:14.701Z,11.77
2023-04-20T04:34:44.358Z,10.67
2023-04-20T04:37:13.443Z,11.37
2023-04-20T04:39:41.471Z,11.93
2023-04-20T04:42:09.456Z,11.77
2023-04-20T04:44:37.521Z,11.20
2023-04-20T04:47:05.809Z,11.10
2023-04-20T04:49:36.350Z,11.97
2023-04-20T04:52:04.477Z,10.70
2023-04-20T04:54:32.475Z,11.60
2023-04-20T04:57:00.445Z,11.07
2023-04-20T04:59:28.501Z,11.17
2023-04-20T05:01:56.749Z,10.70
2023-04-20T05:04:24.999Z,11.60
2023-04-20T05:06:54.446Z,11.03
2023-04-20T05:09:22.518Z,11.27
2023-04-20T05:11:50.516Z,11.27
2023-04-20T05:14:18.841Z,12.00
2023-04-20T05:16:46.861Z,12.43
2023-04-20T05:19:14.961Z,12.10
2023-04-20T05:21:42.987Z,12.00
2023-04-20T05:24:12.370Z,12.60
2023-04-20T05:26:40.541Z,11.47
2023-04-20T05:29:08.523Z,11.87
2023-04-20T05:31:36.638Z,11.30
2023-04-20T05:34:04.693Z,11.87
2023-04-20T05:36:33.527Z,11.53
2023-04-20T05:39:02.111Z,11.33
2023-04-20T05:41:31.461Z,11.47
2023-04-20T05:43:59.483Z,11.30
2023-04-20T05:46:29.150Z,11.33
2023-04-20T05:48:57.328Z,11.03
2023-04-20T05:51:29.542Z,10.80
2023-04-20T05:53:57.540Z,9.87
2023-04-20T05:56:25.735Z,9.83
2023-04-20T05:58:55.705Z,10.27
2023-04-20T06:01:23.813Z,9.57
2023-04-20T06:03:52.171Z,10.40
2023-04-20T06:06:20.274Z,10.10
2023-04-20T06:08:48.453Z,9.30
2023-04-20T06:11:16.412Z,8.87
2023-04-20T06:13:44.452Z,7.80
2023-04-20T06:16:14.293Z,8.30
2023-04-20T06:18:42.260Z,7.43
2023-04-20T06:21:11.105Z,7.60
2023-04-20T06:23:39.275Z,7.40
2023-04-20T06:26:08.866Z,7.90
2023-04-20T06:28:37.717Z,7.90
2023-04-20T06:31:06.118Z,7.70
2023-04-20T06:33:35.657Z,7.43
2023-04-20T06:36:03.688Z,7.80
2023-04-20T06:38:31.689Z,8.03
2023-04-20T06:41:02.862Z,7.60
2023-04-20T06:43:31.089Z,7.73
2023-04-20T06:45:59.078Z,7.63
2023-04-20T06:48:31.629Z,7.83
2023-04-20T06:51:01.968Z,7.80
2023-04-20T06:53:30.462Z,7.70
2023-04-20T06:55:58.783Z,7.97
2023-04-20T06:58:26.796Z,6.60
2023-04-20T07:00:54.934Z,6.97
2023-04-20T07:03:23.329Z,6.70
2023-04-20T07:05:51.632Z,6.37
2023-04-20T07:08:21.362Z,6.60
2023-04-20T07:10:49.351Z,5.93
2023-04-20T07:13:17.310Z,6.00
2023-04-20T07:15:46.710Z,6.60
2023-04-20T07:18:15.417Z,6.50
2023-04-20T07:20:43.719Z,5.63
2023-04-20T07:23:11.738Z,6.07
2023-04-20T07:25:41.174Z,6.60
2023-04-20T07:28:09.203Z,6.53
2023-04-20T07:30:37.537Z,7.10
2023-04-20T07:33:05.786Z,6.20
2023-04-20T07:35:34.781Z,6.80
2023-04-20T07:38:02.894Z,6.27
2023-04-20T07:40:31.092Z,6.20
2023-04-20T07:43:00.864Z,6.53
2023-04-20T07:45:29.129Z,6.60
2023-04-20T07:48:01.461Z,6.23
2023-04-20T07:50:29.889Z,5.73
2023-04-20T07:52:58.040Z,6.77
2023-04-20T07:58:17.466Z,7.60
2023-04-20T08:00:47.430Z,7.50
2023-04-20T08:03:15.817Z,8.43
2023-04-20T08:05:44.732Z,7.63
2023-04-20T08:08:12.815Z,8.00
2023-04-20T08:10:40.860Z,8.73
2023-04-20T08:13:08.862Z,7.43
2023-04-20T08:15:38.370Z,8.23
2023-04-20T08:18:07.412Z,7.60
2023-04-20T08:20:35.844Z,7.47
2023-04-20T08:23:03.955Z,7.47
2023-04-20T08:25:32.929Z,7.30
2023-04-20T08:28:01.104Z,7.23
2023-04-20T08:30:29.630Z,6.40
2023-04-20T08:33:00.126Z,6.53
2023-04-20T08:35:28.267Z,6.57
2023-04-20T08:37:56.449Z,6.30
2023-04-20T08:40:25.119Z,7.03
2023-04-20T08:42:53.659Z,6.63
2023-04-20T08:45:21.848Z,6.60
2023-04-20T08:47:51.702Z,6.30
2023-04-20T08:50:22.300Z,6.10
2023-04-20T08:52:50.336Z,6.03
2023-04-20T08:55:21.627Z,6.17
2023-04-20T08:57:50.343Z,6.70
2023-04-20T09:00:19.212Z,6.27
2023-04-20T09:02:51.527Z,5.77
2023-04-20T09:05:29.685Z,6.20
2023-04-20T09:08:02.237Z,6.10
2023-04-20T09:10:43.133Z,6.00
2023-04-20T09:13:11.253Z,6.50
2023-04-20T09:15:39.469Z,5.80
2023-04-20T09:18:15.427Z,5.80
2023-04-20T09:20:45.164Z,5.77
2023-04-20T09:23:13.852Z,6.10
2023-04-20T09:25:43.659Z,5.43
2023-04-20T09:28:11.787Z,4.87
2023-04-20T09:30:40.929Z,5.00
2023-04-20T09:33:10.916Z,4.80
2023-04-20T09:35:40.502Z,4.90
2023-04-20T09:38:10.931Z,4.97
2023-04-20T09:40:39.136Z,4.80
2023-04-20T09:43:15.205Z,4.87
2023-04-20T09:45:43.790Z,4.50
2023-04-20T09:48:15.752Z,5.17
2023-04-20T09:50:49.899Z,4.70
2023-04-20T09:53:20.808Z,5.13
2023-04-20T09:55:50.360Z,5.47
2023-04-20T09:58:20.721Z,4.90
2023-04-20T10:00:49.105Z,4.97
2023-04-20T10:03:18.612Z,5.23
2023-04-20T10:05:46.988Z,5.33
2023-04-20T10:08:15.192Z,4.70
2023-04-20T10:10:49.888Z,5.13
2023-04-20T10:13:19.513Z,5.07
2023-04-20T10:15:47.872Z,5.30
2023-04-20T10:18:24.605Z,5.30
2023-04-20T10:21:05.125Z,5.27
2023-04-20T10:23:33.109Z,5.30
2023-04-20T10:26:04.002Z,5.67
2023-04-20T10:28:42.981Z,4.97
2023-04-20T10:31:13.944Z,5.37
2023-04-20T10:33:52.467Z,5.73
2023-04-20T10:36:31.390Z,5.83
2023-04-20T10:39:00.586Z,5.57
2023-04-20T10:41:30.694Z,5.03
2023-04-20T10:44:08.762Z,5.40
2023-04-20T10:46:37.050Z,5.03
2023-04-20T10:49:05.194Z,5.23
2023-04-20T10:51:33.664Z,5.30
2023-04-20T10:54:04.981Z,5.27
2023-04-20T10:56:45.703Z,5.03
2023-04-20T10:59:16.304Z,4.90
2023-04-20T11:01:47.259Z,5.00
2023-04-20T11:04:18.461Z,4.97
2023-04-20T11:06:48.814Z,5.50
2023-04-20T11:09:22.685Z,5.60
2023-04-20T11:12:02.401Z,5.87
2023-04-20T11:14:31.119Z,5.63
2023-04-20T11:16:59.309Z,6.20
2023-04-20T11:19:28.626Z,6.20
2023-04-20T11:21:57.027Z,6.57
2023-04-20T11:24:28.066Z,6.30
2023-04-20T11:26:56.724Z,6.30
2023-04-20T11:29:34.367Z,7.13
2023-04-20T11:32:05.371Z,7.60
2023-04-20T11:34:34.729Z,7.50
2023-04-20T11:37:06.663Z,8.27
2023-04-20T11:39:35.085Z,8.87
2023-04-20T11:42:03.734Z,8.83
2023-04-20T11:44:34.039Z,8.87
2023-04-20T11:47:02.435Z,9.03
2023-04-20T11:49:31.846Z,9.20
2023-04-20T11:52:00.150Z,9.50
2023-04-20T11:54:29.894Z,9.63
2023-04-20T11:56:59.040Z,10.47
2023-04-20T11:59:30.662Z,9.50
2023-04-20T12:02:02.908Z,10.37
2023-04-20T12:04:31.446Z,11.20
2023-04-20T12:07:00.256Z,11.30
2023-04-20T12:09:28.504Z,11.40
2023-04-20T12:11:58.299Z,12.27
2023-04-20T12:14:27.275Z,11.97
2023-04-20T12:16:57.435Z,13.00
2023-04-20T12:19:29.905Z,12.47
2023-04-20T12:22:00.014Z,12.40
2023-04-20T12:24:28.204Z,13.30
2023-04-20T12:26:57.804Z,13.07
2023-04-20T12:29:26.075Z,13.07
2023-04-20T12:31:54.213Z,14.53
2023-04-20T12:34:25.640Z,12.97
2023-04-20T12:36:55.136Z,13.50
2023-04-20T12:39:23.221Z,13.10
2023-04-20T12:41:51.353Z,16.87
2023-04-20T12:44:19.587Z,15.90
2023-04-20T12:46:48.311Z,13.43
2023-04-20T12:49:16.775Z,13.30
2023-04-20T12:51:45.091Z,12.87
2023-04-20T12:54:14.724Z,13.40
2023-04-20T12:56:42.844Z,13.07
2023-04-20T12:59:11.380Z,12.20
2023-04-20T13:01:39.406Z,12.93
2023-04-20T13:04:07.621Z,12.87
2023-04-20T13:06:35.993Z,13.97
2023-04-20T13:09:04.687Z,14.10
2023-04-20T13:11:34.888Z,13.63
2023-04-20T13:14:03.006Z,13.60
2023-04-20T13:16:31.051Z,13.27
2023-04-20T13:18:59.253Z,13.07
2023-04-20T13:21:27.357Z,12.67
2023-04-20T13:23:58.534Z,11.97
2023-04-20T13:26:26.989Z,12.83
2023-04-20T13:28:58.451Z,12.10
2023-04-20T13:31:26.869Z,13.13
2023-04-20T13:33:55.354Z,12.23
2023-04-20T13:36:24.948Z,12.53
2023-04-20T13:38:53.667Z,11.93
2023-04-20T13:41:21.904Z,13.00
2023-04-20T13:43:50.751Z,11.73
2023-04-20T13:46:21.389Z,12.13
2023-04-20T13:48:50.445Z,12.40
2023-04-20T13:51:19.096Z,12.57
2023-04-20T13:53:48.702Z,12.27
2023-04-20T13:56:17.469Z,12.63
2023-04-20T13:58:46.171Z,12.20
2023-04-20T14:01:16.744Z,11.43
2023-04-20T14:03:46.902Z,11.03
2023-04-20T14:06:15.132Z,11.60
2023-04-20T14:08:43.438Z,11.47
2023-04-20T14:11:11.733Z,11.60
2023-04-20T14:13:40.081Z,10.73
2023-04-20T14:16:11.562Z,12.00
2023-04-20T14:18:39.775Z,11.37
2023-04-20T14:21:09.384Z,11.60
2023-04-20T14:23:37.678Z,11.63
2023-04-20T14:26:06.218Z,12.77
2023-04-20T14:28:35.116Z,11.60
2023-04-20T14:31:03.655Z,11.73
2023-04-20T14:33:31.764Z,11.97
2023-04-20T14:35:59.816Z,11.83
2023-04-20T14:38:29.665Z,12.80
2023-04-20T14:40:57.809Z,11.90
2023-04-20T14:43:26.072Z,11.23
2023-04-20T14:45:55.166Z,11.83
2023-04-20T14:48:24.225Z,11.80
2023-04-20T14:50:52.506Z,11.57
2023-04-20T14:53:21.612Z,11.93
2023-04-20T14:55:51.810Z,11.33
2023-04-20T14:58:20.568Z,11.73
2023-04-20T15:00:49.621Z,12.33
2023-04-20T15:03:18.424Z,11.63
2023-04-20T15:05:48.232Z,11.57
2023-04-20T15:08:18.625Z,11.90
2023-04-20T15:10:46.723Z,12.10
2023-04-20T15:13:16.399Z,12.30
2023-04-20T15:15:48.985Z,11.77
2023-04-20T15:18:17.713Z,11.80
2023-04-20T15:20:45.967Z,11.73
2023-04-20T15:23:14.123Z,12.63
2023-04-20T15:25:42.305Z,11.37
2023-04-20T15:28:11.536Z,12.10
2023-04-20T15:30:40.996Z,12.30
2023-04-20T15:33:09.158Z,12.60
2023-04-20T15:35:37.257Z,12.87
2023-04-20T15:38:05.534Z,11.03
2023-04-20T15:40:33.951Z,12.27
2023-04-20T15:43:02.819Z,11.77
2023-04-20T15:45:31.186Z,11.77
2023-04-20T15:48:01.023Z,11.77
2023-04-20T15:50:29.530Z,10.83
2023-04-20T15:52:58.236Z,11.70
2023-04-20T15:55:26.453Z,11.10
2023-04-20T15:57:58.013Z,10.57
2023-04-20T16:00:26.239Z,10.33
2023-04-20T16:02:54.843Z,10.77
2023-04-20T16:05:24.959Z,10.63
2023-04-20T16:07:53.669Z,10.17
2023-04-20T16:10:23.476Z,10.73
2023-04-20T16:12:51.570Z,9.50
2023-04-20T16:15:19.931Z,9.50
2023-04-20T16:17:48.485Z,9.83
2023-04-20T16:20:16.779Z,9.63
2023-04-20T16:22:46.322Z,9.63
2023-04-20T16:25:22.533Z,9.00
2023-04-20T16:27:52.305Z,8.87
2023-04-20T16:30:20.641Z,9.90
2023-04-20T16:32:48.780Z,9.77
2023-04-20T16:35:16.963Z,10.13
2023-04-20T16:37:47.137Z,10.20
2023-04-20T16:40:16.170Z,10.40
2023-04-20T16:42:44.232Z,9.83
2023-04-20T16:45:12.342Z,9.60
2023-04-20T16:47:40.630Z,9.90
2023-04-20T16:50:09.301Z,10.20
2023-04-20T16:52:39.363Z,10.23
2023-04-20T16:55:09.834Z,9.97
2023-04-20T16:57:37.924Z,9.53
2023-04-20T17:00:07.682Z,9.77
2023-04-20T17:02:36.272Z,10.87
2023-04-20T17:05:05.144Z,9.97
2023-04-20T17:07:33.756Z,9.60
2023-04-20T17:10:01.892Z,9.87
2023-04-20T17:12:33.804Z,9.77
2023-04-20T17:15:02.291Z,10.03
2023-04-20T17:17:31.085Z,10.23
2023-04-20T17:19:59.437Z,10.53
2023-04-20T17:22:27.831Z,11.37
2023-04-20T17:24:56.220Z,10.70
2023-04-20T17:27:24.312Z,10.17
2023-04-20T17:29:56.122Z,11.00
2023-04-20T17:32:24.713Z,12.30
2023-04-20T17:34:53.879Z,11.87
2023-04-20T17:37:23.172Z,12.80
2023-04-20T17:39:51.827Z,12.03
2023-04-20T17:42:20.833Z,12.00
2023-04-20T17:44:48.889Z,11.70
2023-04-20T17:47:18.626Z,12.23
2023-04-20T17:49:46.801Z,12.90
2023-04-20T17:52:19.356Z,13.07
2023-04-20T17:54:48.251Z,12.17
2023-04-20T17:57:16.496Z,12.80
2023-04-20T17:59:44.653Z,13.30
2023-04-20T18:02:13.485Z,13.73
2023-04-20T18:04:43.202Z,13.93
2023-04-20T18:07:13.412Z,13.27
2023-04-20T18:09:42.725Z,12.50
2023-04-20T18:12:11.418Z,12.33
2023-04-20T18:14:40.912Z,12.70
2023-04-20T18:17:09.199Z,12.37
2023-04-20T18:19:37.756Z,13.17
2023-04-20T18:22:07.551Z,12.43
2023-04-20T18:24:35.669Z,13.30
2023-04-20T18:27:04.190Z,13.07
2023-04-20T18:29:32.505Z,12.83
2023-04-20T18:32:04.316Z,13.20
2023-04-20T18:34:32.517Z,13.33
2023-04-20T18:37:00.627Z,13.33
2023-04-20T18:39:30.163Z,14.40
2023-04-20T18:41:58.320Z,13.43
2023-04-20T18:44:28.408Z,13.43
2023-04-20T18:46:56.774Z,12.97
2023-04-20T18:49:24.832Z,13.43
2023-04-20T18:51:53.076Z,13.67
2023-04-20T18:54:21.237Z,14.53
2023-04-20T18:56:51.423Z,13.97
2023-04-20T18:59:20.279Z,14.27
2023-04-20T19:01:49.144Z,14.40
2023-04-20T19:04:17.810Z,16.23
2023-04-20T19:06:46.102Z,15.43
2023-04-20T19:09:14.507Z,36.07
2023-04-20T19:11:42.656Z,17.87
2023-04-20T19:14:13.314Z,23.53
2023-04-20T19:16:41.452Z,29.77
2023-04-20T19:19:09.724Z,20.03
2023-04-20T19:21:38.203Z,21.43
2023-04-20T19:24:07.068Z,18.23
2023-04-20T19:26:35.476Z,17.40
2023-04-20T19:29:03.632Z,15.77
2023-04-20T19:31:37.552Z,16.80
2023-04-20T19:34:06.752Z,16.93
2023-04-20T19:36:35.056Z,16.67
2023-04-20T19:39:03.962Z,16.80
2023-04-20T19:41:32.091Z,16.50
2023-04-20T19:44:00.723Z,18.80
2023-04-20T19:46:32.651Z,19.27
2023-04-20T19:49:02.682Z,24.30
2023-04-20T19:51:32.166Z,18.67
2023-04-20T19:54:01.719Z,25.73
2023-04-20T19:56:29.812Z,19.73
2023-04-20T19:58:58.055Z,17.80
2023-04-20T20:01:26.147Z,17.80
2023-04-20T20:03:54.514Z,18.03
2023-04-20T20:06:24.203Z,18.07
2023-04-20T20:08:52.360Z,18.40
2023-04-20T20:11:22.171Z,18.60
2023-04-20T20:13:50.142Z,17.87
2023-04-20T20:16:18.476Z,18.00
2023-04-20T20:18:48.594Z,18.43
2023-04-20T20:21:16.582Z,19.00
2023-04-20T20:23:46.545Z,18.93
2023-04-20T20:26:14.852Z,19.17
2023-04-20T20:28:43.088Z,18.43
2023-04-20T20:31:11.218Z,18.77
2023-04-20T20:33:39.359Z,20.53
2023-04-20T20:36:08.031Z,21.80
2023-04-20T20:38:36.238Z,20.97
2023-04-20T20:41:06.646Z,22.23
2023-04-20T20:43:34.806Z,22.97
2023-04-20T20:46:02.869Z,21.37
2023-04-20T20:48:31.295Z,19.87
2023-04-20T20:50:59.328Z,20.43
2023-04-20T20:53:28.312Z,22.17
2023-04-20T20:55:56.552Z,21.17
2023-04-20T20:58:26.099Z,22.10
2023-04-20T21:00:54.544Z,21.67
2023-04-20T21:03:22.812Z,21.97
2023-04-20T21:05:51.162Z,21.50
2023-04-20T21:08:19.398Z,22.23
2023-04-20T21:10:47.429Z,21.57
2023-04-20T21:13:16.115Z,21.93
2023-04-20T21:15:45.726Z,23.00
2023-04-20T21:18:13.756Z,23.67
2023-04-20T21:20:41.713Z,25.23
2023-04-20T21:23:09.701Z,24.07
2023-04-20T21:25:38.088Z,25.17
2023-04-20T21:28:06.416Z,23.17
2023-04-20T21:30:35.274Z,23.37
2023-04-20T21:33:04.757Z,22.90
2023-04-20T21:35:32.797Z,23.67
2023-04-20T21:38:00.972Z,26.03
2023-04-20T21:40:28.987Z,32.67
2023-04-20T21:42:57.064Z,26.67
2023-04-20T21:45:25.003Z,23.50
2023-04-20T21:47:55.272Z,23.60
2023-04-20T21:50:27.429Z,21.10
2023-04-20T21:52:55.501Z,22.97
2023-04-20T21:55:24.811Z,22.13
2023-04-20T21:57:52.865Z,22.27
2023-04-20T22:00:21.210Z,22.80
2023-04-20T22:02:50.578Z,22.77
2023-04-20T22:05:19.034Z,22.00
2023-04-20T22:07:48.420Z,22.93
2023-04-20T22:10:16.432Z,22.63
2023-04-20T22:12:44.449Z,21.70
2023-04-20T22:15:15.211Z,21.90
2023-04-20T22:17:45.372Z,21.27
2023-04-20T22:20:15.074Z,21.43
2023-04-20T22:22:43.204Z,21.00
2023-04-20T22:25:12.983Z,22.10
2023-04-20T22:27:41.471Z,20.77
2023-04-20T22:30:10.386Z,20.13
2023-04-20T22:32:38.851Z,21.03
2023-04-20T22:35:07.894Z,22.53
2023-04-20T22:37:36.266Z,20.50
2023-04-20T22:40:06.444Z,21.10
2023-04-20T22:42:36.118Z,20.70
2023-04-20T22:45:04.396Z,20.93
2023-04-20T22:47:32.489Z,20.47
2023-04-20T22:50:01.650Z,21.73
2023-04-20T22:52:30.085Z,21.43
2023-04-20T22:54:58.101Z,21.30
2023-04-20T22:57:27.138Z,20.80
2023-04-20T22:59:56.562Z,21.30
2023-04-20T23:02:24.985Z,21.30
2023-04-20T23:04:53.286Z,21.43
2023-04-20T23:07:21.273Z,21.37
2023-04-20T23:09:49.245Z,22.13
2023-04-20T23:12:17.492Z,22.03
2023-04-20T23:14:45.636Z,20.40
2023-04-20T23:17:15.552Z,21.07
2023-04-20T23:19:43.581Z,21.37
2023-04-20T23:22:11.546Z,20.50
2023-04-20T23:24:39.636Z,20.77
2023-04-20T23:27:07.674Z,20.57
2023-04-20T23:29:36.568Z,21.40
2023-04-20T23:32:05.031Z,21.33
2023-04-20T23:34:35.147Z,22.07
2023-04-20T23:37:03.396Z,21.83
2023-04-20T23:39:31.379Z,21.03
2023-04-20T23:41:59.556Z,22.40
2023-04-20T23:44:27.530Z,22.57
2023-04-20T23:46:55.484Z,23.67
2023-04-20T23:49:23.454Z,22.63
2023-04-20T23:51:52.800Z,21.97
2023-04-20T23:54:21.150Z,23.10
2023-04-20T23:56:49.137Z,22.67
2023-04-20T23:59:17.487Z,23.30
